Wetterdaten: Woche 01.02.16 - 07.02.16 (KW5)
Datum Zeit Auen-Temp. Temp gefhlt Luftfeuchte Luftdruck Regen Wind Richtung Taupunkt Windben
01.02.2016 00:00 8,3 C 7,6 C 86 % 1015,3 hPa 0,0 mm 19,6 km/h (3 Bft) W-SW 6,1 C 30,3 km/h (5 Bft)
01.02.2016 01:00 9,3 C 8,9 C 82 % 1015,6 hPa 0,0 mm 21,2 km/h (4 Bft) W-SW 6,4 C 28,9 km/h (5 Bft)
01.02.2016 02:00 10,0 C 9,5 C 79 % 1016,2 hPa 0,0 mm 24,8 km/h (4 Bft) W 6,4 C 40,6 km/h (6 Bft)
01.02.2016 03:00 10,1 C 9,5 C 79 % 1017,1 hPa 0,0 mm 25,5 km/h (4 Bft) W-SW 6,5 C 36,8 km/h (5 Bft)
01.02.2016 04:00 9,6 C 8,8 C 82 % 1018,0 hPa 0,0 mm 27,3 km/h (4 Bft) W-SW 6,8 C 40,9 km/h (6 Bft)
01.02.2016 05:00 10,0 C 9,4 C 77 % 1018,5 hPa 0,0 mm 22,3 km/h (4 Bft) W 6,1 C 26,7 km/h (4 Bft)
01.02.2016 06:00 10,3 C 10,0 C 72 % 1019,7 hPa 0,0 mm 18,8 km/h (3 Bft) W 5,5 C 29,0 km/h (5 Bft)
01.02.2016 07:00 10,5 C 10,1 C 70 % 1020,8 hPa 0,0 mm 24,0 km/h (4 Bft) W 5,3 C 33,9 km/h (5 Bft)
01.02.2016 08:00 10,3 C 9,8 C 70 % 1021,5 hPa 0,0 mm 28,6 km/h (4 Bft) W-NW 5,1 C 43,3 km/h (6 Bft)
01.02.2016 09:00 10,3 C 9,8 C 70 % 1022,2 hPa 0,0 mm 23,4 km/h (4 Bft) W 5,0 C 37,7 km/h (5 Bft)
01.02.2016 10:00 10,4 C 10,1 C 70 % 1023,2 hPa 0,0 mm 19,6 km/h (3 Bft) W 5,2 C 24,9 km/h (4 Bft)
01.02.2016 11:00 10,7 C 10,5 C 70 % 1023,8 hPa 0,0 mm 18,0 km/h (3 Bft) W-SW 5,3 C 24,5 km/h (4 Bft)
01.02.2016 12:00 11,3 C 11,5 C 67 % 1024,1 hPa 0,0 mm 15,5 km/h (3 Bft) W 5,4 C 17,8 km/h (3 Bft)
01.02.2016 13:00 11,5 C 11,7 C 66 % 1023,9 hPa 0,0 mm 13,7 km/h (3 Bft) W-SW 5,3 C 17,8 km/h (3 Bft)
01.02.2016 14:00 12,7 C 15,5 C 62 % 1023,7 hPa 0,0 mm 14,2 km/h (3 Bft) W-NW 5,6 C 17,3 km/h (3 Bft)
01.02.2016 15:00 11,3 C 11,5 C 65 % 1023,9 hPa 0,0 mm 9,9 km/h (2 Bft) SW 4,9 C 11,1 km/h (2 Bft)
01.02.2016 16:00 10,4 C 10,4 C 68 % 1023,8 hPa 0,0 mm 9,1 km/h (2 Bft) W 4,8 C 10,8 km/h (2 Bft)
01.02.2016 17:00 9,3 C 9,1 C 74 % 1023,5 hPa 0,0 mm 8,8 km/h (2 Bft) W 4,8 C 11,9 km/h (2 Bft)
01.02.2016 18:00 7,9 C 7,7 C 78 % 1023,2 hPa 0,0 mm 6,4 km/h (2 Bft) SW 4,3 C 7,2 km/h (2 Bft)
01.02.2016 19:00 6,9 C 6,6 C 79 % 1022,5 hPa 0,0 mm 3,8 km/h (1 Bft) W-SW 3,6 C 5,2 km/h (1 Bft)
01.02.2016 20:00 7,1 C 7,0 C 69 % 1023,0 hPa 0,0 mm 5,2 km/h (1 Bft) O-SO 1,8 C 6,0 km/h (2 Bft)
01.02.2016 21:00 7,0 C 6,8 C 77 % 1024,0 hPa 0,0 mm 4,6 km/h (1 Bft) W 3,2 C 4,7 km/h (1 Bft)
01.02.2016 22:00 6,5 C 6,2 C 80 % 1024,2 hPa 0,0 mm 4,7 km/h (1 Bft) W-SW 3,3 C 4,2 km/h (1 Bft)
01.02.2016 23:00 5,4 C 5,1 C 84 % 1024,4 hPa 0,0 mm 3,5 km/h (1 Bft) SW 2,9 C 5,3 km/h (1 Bft)
02.02.2016 00:00 4,9 C 4,7 C 86 % 1024,4 hPa 0,0 mm 1,8 km/h (1 Bft) S 2,8 C 3,1 km/h (1 Bft)
02.02.2016 01:00 4,8 C 4,6 C 88 % 1024,0 hPa 0,0 mm 1,5 km/h (1 Bft) S-SO 2,9 C 4,2 km/h (1 Bft)
02.02.2016 02:00 4,9 C 4,8 C 88 % 1024,1 hPa 0,0 mm 1,7 km/h (1 Bft) S-SW 3,0 C 1,9 km/h (1 Bft)
02.02.2016 03:00 5,1 C 5,0 C 87 % 1023,6 hPa 0,0 mm 5,2 km/h (1 Bft) W-SW 3,1 C 9,7 km/h (2 Bft)
02.02.2016 04:00 4,9 C 4,6 C 86 % 1023,0 hPa 0,0 mm 4,5 km/h (1 Bft) SW 2,8 C 10,3 km/h (2 Bft)
02.02.2016 05:00 4,8 C 4,7 C 85 % 1022,5 hPa 0,0 mm 4,8 km/h (1 Bft) SW 2,5 C 5,1 km/h (1 Bft)
02.02.2016 06:00 4,8 C 4,7 C 83 % 1022,1 hPa 0,0 mm 3,1 km/h (1 Bft) O-SO 2,1 C 3,1 km/h (1 Bft)
02.02.2016 07:00 4,2 C 4,1 C 82 % 1022,2 hPa 0,0 mm 2,2 km/h (1 Bft) O-SO 1,5 C 4,2 km/h (1 Bft)
02.02.2016 08:00 3,6 C 3,6 C 83 % 1022,3 hPa 0,0 mm 0,6 km/h (0 Bft) NO 1,1 C 0,5 km/h (0 Bft)
02.02.2016 09:00 5,4 C 6,2 C 80 % 1022,0 hPa 0,0 mm 1,3 km/h (1 Bft) SW 2,3 C 2,2 km/h (1 Bft)
02.02.2016 10:00 7,7 C 9,1 C 75 % 1021,9 hPa 0,0 mm 2,0 km/h (1 Bft) W-NW 3,5 C 4,2 km/h (1 Bft)
02.02.2016 11:00 9,1 C 10,5 C 68 % 1021,8 hPa 0,0 mm 7,1 km/h (2 Bft) W-SW 3,6 C 8,7 km/h (2 Bft)
02.02.2016 12:00 9,7 C 10,6 C 64 % 1021,2 hPa 0,0 mm 7,7 km/h (2 Bft) W-SW 3,3 C 10,1 km/h (2 Bft)
02.02.2016 13:00 10,1 C 11,3 C 63 % 1020,3 hPa 0,0 mm 6,8 km/h (2 Bft) W-NW 3,3 C 9,7 km/h (2 Bft)
02.02.2016 14:00 11,2 C 14,8 C 59 % 1019,5 hPa 0,0 mm 5,7 km/h (1 Bft) W-NW 3,5 C 6,0 km/h (2 Bft)
02.02.2016 15:00 11,4 C 14,4 C 59 % 1018,8 hPa 0,0 mm 6,5 km/h (2 Bft) W-NW 3,6 C 7,8 km/h (2 Bft)
02.02.2016 16:00 8,5 C 8,5 C 61 % 1018,3 hPa 0,0 mm 5,9 km/h (2 Bft) W 1,4 C 8,6 km/h (2 Bft)
02.02.2016 17:00 6,5 C 6,3 C 65 % 1017,6 hPa 0,0 mm 2,6 km/h (1 Bft) S 0,3 C 2,3 km/h (1 Bft)
02.02.2016 18:00 5,6 C 5,2 C 66 % 1017,5 hPa 0,0 mm 5,0 km/h (1 Bft) W -0,2 C 6,5 km/h (2 Bft)
02.02.2016 19:00 7,4 C 6,9 C 58 % 1017,9 hPa 0,0 mm 13,5 km/h (3 Bft) NW -0,2 C 21,8 km/h (4 Bft)
02.02.2016 20:00 7,3 C 6,8 C 62 % 1018,3 hPa 0,0 mm 16,3 km/h (3 Bft) W 0,4 C 23,9 km/h (4 Bft)
02.02.2016 21:00 6,8 C 6,1 C 70 % 1019,2 hPa 0,0 mm 19,8 km/h (4 Bft) W 1,8 C 28,1 km/h (4 Bft)
02.02.2016 22:00 6,7 C 5,8 C 69 % 1019,1 hPa 0,0 mm 22,3 km/h (4 Bft) W 1,4 C 30,0 km/h (5 Bft)
02.02.2016 23:00 6,7 C 5,9 C 66 % 1018,7 hPa 0,0 mm 22,8 km/h (4 Bft) W 0,8 C 27,4 km/h (4 Bft)
03.02.2016 00:00 6,4 C 5,7 C 64 % 1018,9 hPa 0,0 mm 14,4 km/h (3 Bft) W-SW 0,1 C 23,5 km/h (4 Bft)
03.02.2016 01:00 6,2 C 5,8 C 61 % 1018,6 hPa 0,0 mm 10,9 km/h (2 Bft) W-SW -0,7 C 13,3 km/h (3 Bft)
03.02.2016 02:00 7,3 C 6,8 C 60 % 1018,5 hPa 0,0 mm 12,7 km/h (3 Bft) W-NW -0,0 C 17,1 km/h (3 Bft)
03.02.2016 03:00 6,7 C 6,3 C 65 % 1018,1 hPa 0,0 mm 12,1 km/h (2 Bft) W 0,6 C 14,7 km/h (3 Bft)
03.02.2016 04:00 5,6 C 5,0 C 74 % 1017,2 hPa 0,0 mm 10,6 km/h (2 Bft) W-SW 1,2 C 13,5 km/h (3 Bft)
03.02.2016 05:00 4,3 C 4,2 C 77 % 1016,8 hPa 0,0 mm 3,7 km/h (1 Bft) NW 0,7 C 4,2 km/h (1 Bft)
03.02.2016 06:00 4,2 C 4,1 C 80 % 1016,6 hPa 0,0 mm 0,9 km/h (0 Bft) O-NO 1,1 C 1,2 km/h (1 Bft)
03.02.2016 07:00 3,6 C 3,4 C 84 % 1016,5 hPa 1,4 mm 1,2 km/h (1 Bft) O-NO 1,1 C 1,6 km/h (1 Bft)
03.02.2016 08:00 1,8 C 1,4 C 86 % 1017,0 hPa 1,4 mm 4,8 km/h (1 Bft) W-SW -0,4 C 5,2 km/h (1 Bft)
03.02.2016 09:00 0,7 C 0,5 C 86 % 1017,5 hPa 0,0 mm 2,5 km/h (1 Bft) W -1,3 C 3,3 km/h (1 Bft)
03.02.2016 10:00 0,6 C 0,6 C 84 % 1017,7 hPa 0,7 mm 1,3 km/h (1 Bft) W -1,8 C 1,2 km/h (1 Bft)
03.02.2016 11:00 0,7 C 0,6 C 84 % 1018,0 hPa 0,7 mm 3,2 km/h (1 Bft) W-SW -1,6 C 4,4 km/h (1 Bft)
03.02.2016 12:00 0,8 C 0,9 C 85 % 1017,8 hPa 0,7 mm 4,0 km/h (1 Bft) W-SW -1,4 C 5,8 km/h (2 Bft)
03.02.2016 13:00 0,9 C 0,9 C 85 % 1017,5 hPa 0,7 mm 4,5 km/h (1 Bft) W -1,4 C 6,3 km/h (2 Bft)
03.02.2016 14:00 1,0 C 0,6 C 85 % 1017,2 hPa 0,7 mm 7,0 km/h (2 Bft) W-SW -1,2 C 9,7 km/h (2 Bft)
03.02.2016 15:00 1,3 C 0,8 C 87 % 1017,0 hPa 0,7 mm 6,0 km/h (2 Bft) W-SW -0,7 C 7,5 km/h (2 Bft)
03.02.2016 16:00 1,2 C 0,5 C 89 % 1017,1 hPa 0,7 mm 7,0 km/h (2 Bft) W -0,5 C 10,5 km/h (2 Bft)
03.02.2016 17:00 0,6 C -0,3 C 90 % 1017,4 hPa 0,0 mm 11,2 km/h (2 Bft) W-SW -0,8 C 15,2 km/h (3 Bft)
03.02.2016 18:00 0,5 C -0,5 C 91 % 1018,7 hPa 0,0 mm 9,6 km/h (2 Bft) W -0,8 C 13,5 km/h (3 Bft)
03.02.2016 19:00 0,0 C -0,8 C 88 % 1020,6 hPa 0,0 mm 11,3 km/h (2 Bft) NW -1,7 C 15,3 km/h (3 Bft)
03.02.2016 20:00 -0,6 C -1,6 C 86 % 1022,1 hPa 0,0 mm 13,0 km/h (3 Bft) NW -2,6 C 16,8 km/h (3 Bft)
03.02.2016 21:00 -1,1 C -2,2 C 85 % 1022,8 hPa 0,0 mm 10,1 km/h (2 Bft) NW -3,2 C 12,3 km/h (3 Bft)
03.02.2016 22:00 -1,5 C -2,6 C 84 % 1023,4 hPa 0,0 mm 9,8 km/h (2 Bft) NW -3,9 C 13,0 km/h (3 Bft)
03.02.2016 23:00 -1,5 C -2,2 C 81 % 1023,2 hPa 0,0 mm 6,4 km/h (2 Bft) NW -4,3 C 7,7 km/h (2 Bft)
04.02.2016 00:00 -1,7 C -2,3 C 80 % 1023,2 hPa 0,0 mm 5,5 km/h (1 Bft) NW -4,7 C 6,0 km/h (2 Bft)
04.02.2016 01:00 -2,0 C -2,4 C 84 % 1023,4 hPa 0,0 mm 4,7 km/h (1 Bft) NW -4,4 C 6,6 km/h (2 Bft)
04.02.2016 02:00 -1,5 C -2,2 C 84 % 1023,8 hPa 0,0 mm 7,3 km/h (2 Bft) NW -3,8 C 11,0 km/h (2 Bft)
04.02.2016 03:00 -1,4 C -2,4 C 85 % 1024,4 hPa 0,0 mm 9,6 km/h (2 Bft) NW -3,5 C 14,7 km/h (3 Bft)
04.02.2016 04:00 -1,5 C -2,5 C 85 % 1025,1 hPa 0,0 mm 9,6 km/h (2 Bft) NW -3,7 C 12,4 km/h (3 Bft)
04.02.2016 05:00 -1,5 C -2,4 C 85 % 1025,1 hPa 0,0 mm 8,0 km/h (2 Bft) NW -3,7 C 10,1 km/h (2 Bft)
04.02.2016 06:00 -1,4 C -2,2 C 83 % 1024,9 hPa 0,0 mm 6,4 km/h (2 Bft) NW -4,0 C 7,5 km/h (2 Bft)
04.02.2016 07:00 -1,5 C -2,3 C 82 % 1025,0 hPa 0,0 mm 7,5 km/h (2 Bft) NW -4,2 C 9,9 km/h (2 Bft)
04.02.2016 08:00 -0,9 C -1,7 C 79 % 1025,2 hPa 0,0 mm 8,6 km/h (2 Bft) NW -4,1 C 10,3 km/h (2 Bft)
04.02.2016 09:00 -0,5 C -0,8 C 78 % 1025,4 hPa 0,0 mm 11,6 km/h (2 Bft) NW -3,9 C 16,3 km/h (3 Bft)
04.02.2016 10:00 -0,1 C -0,4 C 76 % 1025,6 hPa 0,0 mm 11,1 km/h (2 Bft) NW -3,7 C 14,7 km/h (3 Bft)
04.02.2016 11:00 0,5 C 0,7 C 74 % 1025,6 hPa 0,0 mm 11,0 km/h (2 Bft) NW -3,5 C 12,6 km/h (3 Bft)
04.02.2016 12:00 0,4 C 0,0 C 74 % 1025,3 hPa 0,0 mm 14,2 km/h (3 Bft) NW -3,7 C 21,9 km/h (4 Bft)
04.02.2016 13:00 1,3 C 2,1 C 71 % 1024,2 hPa 0,0 mm 11,1 km/h (2 Bft) W-SW -3,4 C 14,2 km/h (3 Bft)
04.02.2016 14:00 1,2 C 1,4 C 67 % 1022,8 hPa 0,0 mm 10,9 km/h (2 Bft) W-SW -4,3 C 14,7 km/h (3 Bft)
04.02.2016 15:00 1,0 C 0,9 C 66 % 1022,0 hPa 0,0 mm 9,4 km/h (2 Bft) W -4,5 C 12,6 km/h (3 Bft)
04.02.2016 16:00 0,3 C -0,0 C 71 % 1021,2 hPa 0,0 mm 7,2 km/h (2 Bft) W-SW -4,2 C 9,3 km/h (2 Bft)
04.02.2016 17:00 0,2 C -0,6 C 74 % 1020,2 hPa 0,0 mm 10,3 km/h (2 Bft) W-SW -3,9 C 14,1 km/h (3 Bft)
04.02.2016 18:00 1,1 C 0,2 C 75 % 1019,7 hPa 0,7 mm 18,1 km/h (3 Bft) NW -2,9 C 25,7 km/h (4 Bft)
04.02.2016 19:00 1,3 C 0,3 C 78 % 1020,6 hPa 0,0 mm 20,6 km/h (4 Bft) W-SW -2,1 C 31,3 km/h (5 Bft)
04.02.2016 20:00 1,1 C -0,1 C 86 % 1021,1 hPa 0,0 mm 17,8 km/h (3 Bft) W -1,0 C 25,7 km/h (4 Bft)
04.02.2016 21:00 1,1 C 0,2 C 87 % 1021,6 hPa 0,0 mm 14,5 km/h (3 Bft) W -0,7 C 17,3 km/h (3 Bft)
04.02.2016 22:00 1,4 C 0,4 C 88 % 1021,9 hPa 0,7 mm 16,7 km/h (3 Bft) W -0,4 C 20,5 km/h (4 Bft)
04.02.2016 23:00 1,4 C 0,3 C 88 % 1022,4 hPa 0,7 mm 15,9 km/h (3 Bft) W -0,5 C 22,8 km/h (4 Bft)
05.02.2016 00:00 1,5 C 0,6 C 89 % 1022,8 hPa 0,7 mm 14,9 km/h (3 Bft) W -0,1 C 22,1 km/h (4 Bft)
05.02.2016 01:00 1,6 C 0,6 C 87 % 1023,5 hPa 0,0 mm 13,4 km/h (3 Bft) W -0,3 C 17,8 km/h (3 Bft)
05.02.2016 02:00 1,5 C 0,5 C 89 % 1023,9 hPa 0,7 mm 13,0 km/h (3 Bft) W-SW -0,2 C 15,3 km/h (3 Bft)
05.02.2016 03:00 1,7 C 0,8 C 88 % 1024,1 hPa 0,0 mm 12,6 km/h (3 Bft) W -0,1 C 17,8 km/h (3 Bft)
05.02.2016 04:00 1,6 C 0,7 C 87 % 1024,5 hPa 0,0 mm 12,1 km/h (2 Bft) W-SW -0,3 C 18,0 km/h (3 Bft)
05.02.2016 05:00 1,6 C 0,8 C 88 % 1026,8 hPa 0,0 mm 9,4 km/h (2 Bft) W-SW -0,2 C 11,3 km/h (2 Bft)
05.02.2016 06:00 1,7 C 1,1 C 88 % 1028,8 hPa 0,7 mm 8,3 km/h (2 Bft) W -0,1 C 10,8 km/h (2 Bft)
05.02.2016 07:00 1,4 C 0,9 C 88 % 1029,2 hPa 0,0 mm 6,5 km/h (2 Bft) W-SW -0,4 C 6,8 km/h (2 Bft)
05.02.2016 08:00 2,0 C 1,7 C 87 % 1029,6 hPa 0,0 mm 5,4 km/h (1 Bft) W-SW 0,1 C 6,3 km/h (2 Bft)
05.02.2016 09:00 2,5 C 3,0 C 83 % 1029,7 hPa 0,0 mm 3,9 km/h (1 Bft) W -0,0 C 6,6 km/h (2 Bft)
05.02.2016 10:00 3,3 C 4,2 C 80 % 1030,2 hPa 0,0 mm 7,1 km/h (2 Bft) W 0,3 C 9,6 km/h (2 Bft)
05.02.2016 11:00 3,6 C 4,0 C 80 % 1030,5 hPa 0,0 mm 6,3 km/h (2 Bft) W 0,4 C 8,2 km/h (2 Bft)
05.02.2016 12:00 3,9 C 4,6 C 78 % 1030,0 hPa 0,0 mm 6,9 km/h (2 Bft) W 0,5 C 8,4 km/h (2 Bft)
05.02.2016 13:00 5,1 C 7,1 C 75 % 1029,6 hPa 0,0 mm 5,8 km/h (2 Bft) W-SW 1,1 C 7,7 km/h (2 Bft)
05.02.2016 14:00 5,6 C 6,9 C 74 % 1028,9 hPa 0,0 mm 2,1 km/h (1 Bft) N-NO 1,3 C 2,7 km/h (1 Bft)
05.02.2016 15:00 6,0 C 7,4 C 72 % 1028,5 hPa 0,0 mm 0,6 km/h (0 Bft) O-SO 1,4 C 0,5 km/h (0 Bft)
05.02.2016 16:00 5,0 C 5,8 C 74 % 1028,5 hPa 0,0 mm 0,1 km/h (0 Bft) N 0,7 C 0,2 km/h (0 Bft)
05.02.2016 17:00 2,9 C 2,6 C 79 % 1028,4 hPa 0,0 mm 0,1 km/h (0 Bft) N -0,3 C 0,3 km/h (0 Bft)
05.02.2016 18:00 1,1 C 0,6 C 83 % 1028,2 hPa 0,0 mm 0,0 km/h (0 Bft) N -1,4 C 0,0 km/h (0 Bft)
05.02.2016 19:00 0,3 C -0,1 C 85 % 1027,7 hPa 0,0 mm 0,4 km/h (0 Bft) O-SO -1,9 C 1,4 km/h (1 Bft)
05.02.2016 20:00 0,4 C 0,1 C 88 % 1027,3 hPa 0,0 mm 0,9 km/h (0 Bft) NW -1,4 C 1,3 km/h (1 Bft)
05.02.2016 21:00 -0,3 C -0,6 C 88 % 1026,8 hPa 0,0 mm 0,1 km/h (0 Bft) N -1,9 C 0,0 km/h (0 Bft)
05.02.2016 22:00 -0,4 C -0,9 C 89 % 1026,2 hPa 0,0 mm 0,0 km/h (0 Bft) N -2,1 C 0,0 km/h (0 Bft)
05.02.2016 23:00 -0,9 C -1,3 C 89 % 1025,7 hPa 0,0 mm 0,0 km/h (0 Bft) N -2,4 C 0,0 km/h (0 Bft)
06.02.2016 00:00 -0,9 C -1,3 C 90 % 1025,3 hPa 0,0 mm 0,0 km/h (0 Bft) N -2,3 C 0,0 km/h (0 Bft)
06.02.2016 01:00 -1,2 C -1,6 C 90 % 1024,6 hPa 0,0 mm 0,1 km/h (0 Bft) N -2,7 C 0,0 km/h (0 Bft)
06.02.2016 02:00 -1,0 C -1,4 C 91 % 1024,6 hPa 0,0 mm 0,0 km/h (0 Bft) N -2,4 C 0,0 km/h (0 Bft)
06.02.2016 03:00 -0,8 C -1,3 C 90 % 1024,2 hPa 0,0 mm 0,1 km/h (0 Bft) N -2,3 C 0,3 km/h (0 Bft)
06.02.2016 04:00 -0,5 C -1,0 C 89 % 1024,1 hPa 0,0 mm 0,3 km/h (0 Bft) N -2,0 C 1,4 km/h (1 Bft)
06.02.2016 05:00 -0,1 C -0,6 C 88 % 1023,8 hPa 0,0 mm 0,2 km/h (0 Bft) N -1,8 C 0,7 km/h (0 Bft)
06.02.2016 06:00 0,3 C -0,3 C 87 % 1023,3 hPa 0,0 mm 0,1 km/h (0 Bft) N -1,6 C 0,0 km/h (0 Bft)
06.02.2016 07:00 1,4 C 1,1 C 83 % 1023,2 hPa 0,0 mm 0,3 km/h (0 Bft) N -1,1 C 0,7 km/h (0 Bft)
06.02.2016 08:00 2,0 C 2,2 C 79 % 1023,1 hPa 0,0 mm 1,2 km/h (1 Bft) W-SW -1,2 C 1,6 km/h (1 Bft)
06.02.2016 09:00 3,3 C 4,5 C 75 % 1023,0 hPa 0,0 mm 0,1 km/h (0 Bft) N -0,6 C 0,3 km/h (0 Bft)
06.02.2016 10:00 6,2 C 7,9 C 66 % 1023,2 hPa 0,0 mm 2,2 km/h (1 Bft) W-SW 0,2 C 5,2 km/h (1 Bft)
06.02.2016 11:00 8,2 C 12,7 C 61 % 1023,3 hPa 0,0 mm 0,3 km/h (0 Bft) N 1,1 C 0,3 km/h (0 Bft)
06.02.2016 12:00 9,6 C 13,3 C 58 % 1022,7 hPa 0,0 mm 0,0 km/h (0 Bft) N 1,7 C 0,0 km/h (0 Bft)
06.02.2016 13:00 11,2 C 15,4 C 54 % 1021,4 hPa 0,0 mm 2,2 km/h (1 Bft) O-SO 2,2 C 2,5 km/h (1 Bft)
06.02.2016 14:00 12,1 C 16,4 C 53 % 1020,4 hPa 0,0 mm 1,8 km/h (1 Bft) O-SO 2,8 C 1,6 km/h (1 Bft)
06.02.2016 15:00 11,8 C 14,9 C 52 % 1019,6 hPa 0,0 mm 0,5 km/h (0 Bft) O-NO 2,1 C 1,2 km/h (1 Bft)
06.02.2016 16:00 10,1 C 10,7 C 54 % 1018,9 hPa 0,0 mm 2,8 km/h (1 Bft) S 1,3 C 3,3 km/h (1 Bft)
06.02.2016 17:00 7,4 C 7,3 C 61 % 1018,0 hPa 0,0 mm 2,2 km/h (1 Bft) SO 0,3 C 3,5 km/h (1 Bft)
06.02.2016 18:00 4,5 C 4,2 C 66 % 1017,3 hPa 0,0 mm 0,4 km/h (0 Bft) SO -1,3 C 0,3 km/h (0 Bft)
06.02.2016 19:00 4,7 C 4,7 C 60 % 1016,3 hPa 0,0 mm 1,3 km/h (1 Bft) SO -2,5 C 2,0 km/h (1 Bft)
06.02.2016 20:00 7,4 C 7,4 C 50 % 1015,7 hPa 0,0 mm 2,9 km/h (1 Bft) SO -2,6 C 4,4 km/h (1 Bft)
06.02.2016 21:00 8,6 C 8,5 C 42 % 1014,9 hPa 0,0 mm 2,5 km/h (1 Bft) SO -3,7 C 2,5 km/h (1 Bft)
06.02.2016 22:00 7,8 C 8,0 C 42 % 1013,8 hPa 0,0 mm 5,0 km/h (1 Bft) O-SO -4,2 C 5,7 km/h (1 Bft)
06.02.2016 23:00 7,1 C 7,3 C 43 % 1013,2 hPa 0,0 mm 2,3 km/h (1 Bft) O-SO -4,5 C 4,9 km/h (1 Bft)
07.02.2016 00:00 9,1 C 9,1 C 39 % 1012,3 hPa 0,0 mm 7,0 km/h (2 Bft) NW -4,1 C 13,2 km/h (3 Bft)
07.02.2016 01:00 9,4 C 9,4 C 37 % 1011,7 hPa 0,0 mm 6,0 km/h (2 Bft) W-SW -4,5 C 7,5 km/h (2 Bft)
07.02.2016 02:00 10,0 C 9,8 C 35 % 1011,3 hPa 0,0 mm 8,7 km/h (2 Bft) SW -4,8 C 11,6 km/h (2 Bft)
07.02.2016 03:00 9,2 C 9,0 C 36 % 1010,8 hPa 0,0 mm 5,6 km/h (1 Bft) W-SW -5,0 C 6,8 km/h (2 Bft)
07.02.2016 04:00 8,6 C 8,4 C 38 % 1010,4 hPa 0,0 mm 2,7 km/h (1 Bft) SO -4,7 C 3,2 km/h (1 Bft)
07.02.2016 05:00 8,9 C 8,7 C 38 % 1010,2 hPa 0,0 mm 5,9 km/h (2 Bft) S -4,6 C 8,3 km/h (2 Bft)
07.02.2016 06:00 8,6 C 8,5 C 39 % 1010,1 hPa 0,0 mm 3,9 km/h (1 Bft) S-SW -4,5 C 3,7 km/h (1 Bft)
07.02.2016 07:00 8,0 C 8,0 C 42 % 1010,0 hPa 0,0 mm 2,3 km/h (1 Bft) O-SO -4,0 C 1,8 km/h (1 Bft)
07.02.2016 08:00 10,2 C 10,5 C 40 % 1009,3 hPa 0,0 mm 7,5 km/h (2 Bft) W -2,9 C 17,8 km/h (3 Bft)
07.02.2016 09:00 10,4 C 11,1 C 40 % 1008,9 hPa 0,0 mm 5,7 km/h (1 Bft) O-NO -2,7 C 7,5 km/h (2 Bft)
07.02.2016 10:00 9,6 C 10,1 C 43 % 1009,0 hPa 0,0 mm 4,4 km/h (1 Bft) O-NO -2,3 C 5,7 km/h (1 Bft)
07.02.2016 11:00 9,3 C 9,7 C 45 % 1008,8 hPa 0,0 mm 4,8 km/h (1 Bft) O-NO -1,9 C 5,2 km/h (1 Bft)
07.02.2016 12:00 10,1 C 10,9 C 47 % 1008,3 hPa 0,0 mm 2,6 km/h (1 Bft) O-NO -0,7 C 4,5 km/h (1 Bft)
07.02.2016 13:00 11,6 C 13,0 C 45 % 1008,3 hPa 0,0 mm 3,2 km/h (1 Bft) NO -0,1 C 4,1 km/h (1 Bft)
07.02.2016 14:00 11,4 C 12,3 C 45 % 1008,5 hPa 0,0 mm 0,8 km/h (0 Bft) NO -0,2 C 1,1 km/h (1 Bft)
07.02.2016 15:00 10,2 C 10,5 C 46 % 1009,7 hPa 0,0 mm 9,8 km/h (2 Bft) W -0,9 C 12,6 km/h (3 Bft)
07.02.2016 16:00 7,4 C 7,1 C 57 % 1011,6 hPa 0,0 mm 12,1 km/h (2 Bft) W -0,6 C 13,8 km/h (3 Bft)
07.02.2016 17:00 6,0 C 5,6 C 67 % 1012,6 hPa 0,0 mm 9,9 km/h (2 Bft) W 0,4 C 14,1 km/h (3 Bft)
07.02.2016 18:00 5,3 C 4,8 C 70 % 1013,0 hPa 0,0 mm 12,0 km/h (2 Bft) W-SW 0,3 C 13,1 km/h (3 Bft)
07.02.2016 19:00 4,1 C 3,3 C 74 % 1013,9 hPa 0,0 mm 15,3 km/h (3 Bft) W-NW -0,1 C 20,1 km/h (4 Bft)
07.02.2016 20:00 3,1 C 2,4 C 78 % 1015,1 hPa 0,0 mm 7,7 km/h (2 Bft) W -0,3 C 9,3 km/h (2 Bft)
07.02.2016 21:00 2,4 C 1,9 C 83 % 1015,6 hPa 0,7 mm 6,1 km/h (2 Bft) W-SW -0,3 C 6,0 km/h (2 Bft)
07.02.2016 22:00 2,1 C 1,8 C 84 % 1016,1 hPa 0,7 mm 3,1 km/h (1 Bft) W-SW -0,3 C 3,8 km/h (1 Bft)
07.02.2016 23:00 1,7 C 1,1 C 86 % 1016,5 hPa 0,7 mm 7,2 km/h (2 Bft) W-SW -0,4 C 9,9 km/h (2 Bft)
Min-Datum _ 04.02.16 03.02.16 07.02.16 07.02.16 - 07.02.16 - 07.02.16 07.02.16
_ Min-Zeit 01:00 22:10 02:15 13:00 - 22:55 - 02:45 22:35
Minimum _ -2,0 C -2,9 C 34 % 1008,1 hPa - 0,0 km/h (0 Bft) - -5,6 C 0,0 km/h (0 Bft)
Max-Datum _ 01.02.16 06.02.16 06.02.16 05.02.16 03.02.16 01.02.16 - 01.02.16 01.02.16
_ Max-Zeit 14:05 15:00 03:10 11:05 07:30 08:25 - 04:40 08:45
Maximum _ 13,1 C 16,9 C 91 % 1030,6 hPa 1,4 mm 32,6 km/h
W-NW (5 Bft)
- 6,9 C 74,3 km/h
W-NW (8 Bft)
Durchschnitt _ 4,7 C 4,7 C 73 % 1020,5 hPa #13,7 mm 7,7 km/h (2 Bft) NW -0,1 C 10,6 km/h (2 Bft)